Time;durP1;ratioP1;P1;durP2;ratioP2;P2;SDS_P1;SDS_P2;PMS_P1;PMS_P2;Temp;Humidity;BMP_temperature;BMP_pressure;BME280_temperature;BME280_humidity;BME280_pressure;Samples;Min_cycle;Max_cycle;Signal;HPM_P1;HPM_P2
2023/09/13 00:00:46;;;;;;;77.07;54.20;;;;;;;;;;5001196;28;20211;-71
2023/09/13 00:03:12;;;;;;;83.30;57.10;;;;;;;;;;5017965;28;20175;-71
2023/09/13 00:05:38;;;;;;;80.97;56.57;;;;;;;;;;5017542;28;20258;-71
2023/09/13 00:08:04;;;;;;;79.97;55.60;;;;;;;;;;5017337;28;20269;-71
2023/09/13 00:10:30;;;;;;;83.87;59.13;;;;;;;;;;5017542;28;20180;-71
2023/09/13 00:12:56;;;;;;;81.40;57.67;;;;;;;;;;5018033;28;20666;-71
2023/09/13 00:15:22;;;;;;;85.47;59.23;;;;;;;;;;5017473;28;20556;-71
2023/09/13 00:17:48;;;;;;;84.63;57.67;;;;;;;;;;4999919;28;20273;-71
2023/09/13 00:20:14;;;;;;;86.03;57.93;;;;;;;;;;5017387;28;20199;-70
2023/09/13 00:22:40;;;;;;;87.70;59.40;;;;;;;;;;5017369;28;20180;-70
2023/09/13 00:25:06;;;;;;;86.70;60.10;;;;;;;;;;5016991;28;20171;-71
2023/09/13 00:27:32;;;;;;;90.87;60.03;;;;;;;;;;5000241;28;20689;-71
2023/09/13 00:29:58;;;;;;;88.67;59.23;;;;;;;;;;4999890;28;20592;-71
2023/09/13 00:32:24;;;;;;;85.07;59.20;;;;;;;;;;4999792;28;20186;-71
2023/09/13 00:34:50;;;;;;;84.93;58.87;;;;;;;;;;5002512;28;20217;-71
2023/09/13 00:37:16;;;;;;;82.37;57.17;;;;;;;;;;5001058;28;20204;-71
2023/09/13 00:39:42;;;;;;;87.43;56.60;;;;;;;;;;5017663;28;20183;-70
2023/09/13 00:42:08;;;;;;;84.37;59.13;;;;;;;;;;4999276;28;20211;-71
2023/09/13 00:44:34;;;;;;;85.17;57.53;;;;;;;;;;4999371;28;20183;-71
2023/09/13 00:47:00;;;;;;;85.97;58.80;;;;;;;;;;5016597;28;20199;-71
2023/09/13 00:49:26;;;;;;;83.17;55.93;;;;;;;;;;4998846;28;20184;-71
2023/09/13 00:51:54;;;;;;;81.30;54.53;;;;;;;;;;5016858;28;20258;-71
2023/09/13 00:54:20;;;;;;;71.50;52.53;;;;;;;;;;5017199;28;20182;-71
2023/09/13 00:56:46;;;;;;;83.70;56.90;;;;;;;;;;5016639;28;20676;-71
2023/09/13 00:59:13;;;;;;;77.40;56.57;;;;;;;;;;5016293;28;20618;-71
2023/09/13 01:01:39;;;;;;;81.70;54.27;;;;;;;;;;4998626;28;20211;-71
2023/09/13 01:04:05;;;;;;;86.20;56.87;;;;;;;;;;5016159;28;20175;-71
2023/09/13 01:06:31;;;;;;;84.13;56.57;;;;;;;;;;5016094;28;20255;-71
2023/09/13 01:08:58;;;;;;;80.60;55.00;;;;;;;;;;4998573;28;20191;-71
2023/09/13 01:11:24;;;;;;;74.63;52.20;;;;;;;;;;5016113;28;20218;-71
2023/09/13 01:13:50;;;;;;;80.70;53.60;;;;;;;;;;5016052;28;20179;-71
2023/09/13 01:16:23;;;;;;;77.77;53.60;;;;;;;;;;5016212;28;20183;-71
2023/09/13 01:19:01;;;;;;;79.83;55.47;;;;;;;;;;4998353;28;20215;-71
2023/09/13 01:21:46;;;;;;;84.53;55.53;;;;;;;;;;5015828;28;20211;-70
2023/09/13 01:24:24;;;;;;;77.67;54.20;;;;;;;;;;5016210;28;20560;-71
2023/09/13 01:27:07;;;;;;;80.53;55.10;;;;;;;;;;5015888;28;20371;-71
2023/09/13 01:29:35;;;;;;;83.37;54.73;;;;;;;;;;5016270;28;20271;-71
2023/09/13 01:32:01;;;;;;;83.17;53.80;;;;;;;;;;5015907;28;20175;-71
2023/09/13 01:34:27;;;;;;;76.40;54.40;;;;;;;;;;5016032;28;20234;-71
2023/09/13 01:36:56;;;;;;;88.63;56.47;;;;;;;;;;4998118;28;20211;-71
2023/09/13 01:39:22;;;;;;;89.23;57.30;;;;;;;;;;4998376;28;20238;-71
2023/09/13 01:41:54;;;;;;;86.93;58.17;;;;;;;;;;4997965;28;20211;-70
2023/09/13 01:44:20;;;;;;;96.47;58.73;;;;;;;;;;4998138;28;20200;-71
2023/09/13 01:46:46;;;;;;;84.67;52.67;;;;;;;;;;5015951;28;20207;-71
2023/09/13 01:49:13;;;;;;;88.33;56.63;;;;;;;;;;4998298;28;20715;-71
2023/09/13 01:51:39;;;;;;;87.33;57.33;;;;;;;;;;4997939;28;20546;-71
2023/09/13 01:54:05;;;;;;;90.43;55.93;;;;;;;;;;5015890;28;20250;-71
2023/09/13 01:56:32;;;;;;;80.13;53.80;;;;;;;;;;5015664;28;20183;-71
2023/09/13 01:58:58;;;;;;;78.17;56.67;;;;;;;;;;5015120;28;20263;-70
2023/09/13 02:01:24;;;;;;;89.97;56.17;;;;;;;;;;4997353;28;20233;-71
2023/09/13 02:03:50;;;;;;;87.87;56.20;;;;;;;;;;5015008;28;20222;-71
2023/09/13 02:06:16;;;;;;;88.27;54.17;;;;;;;;;;5015122;28;20634;-71
2023/09/13 02:08:42;;;;;;;85.60;56.53;;;;;;;;;;4997429;28;20196;-71
2023/09/13 02:11:09;;;;;;;85.80;55.83;;;;;;;;;;5014902;28;20176;-71
2023/09/13 02:13:34;;;;;;;89.23;57.53;;;;;;;;;;5014780;28;20187;-71
2023/09/13 02:16:01;;;;;;;90.50;58.07;;;;;;;;;;5014364;28;20184;-71
2023/09/13 02:18:27;;;;;;;88.93;56.27;;;;;;;;;;5015105;28;20546;-70
2023/09/13 02:20:53;;;;;;;99.43;59.23;;;;;;;;;;4997197;28;20247;-70
2023/09/13 02:23:19;;;;;;;90.97;57.67;;;;;;;;;;5014773;28;20186;-70
2023/09/13 02:25:45;;;;;;;93.73;56.90;;;;;;;;;;4996815;28;20603;-71
2023/09/13 02:28:12;;;;;;;96.17;58.97;;;;;;;;;;5014391;28;20213;-71
2023/09/13 02:30:38;;;;;;;96.47;59.37;;;;;;;;;;5014995;28;20190;-70
2023/09/13 02:33:05;;;;;;;97.87;59.97;;;;;;;;;;5014332;28;20175;-70
2023/09/13 02:35:31;;;;;;;102.93;62.23;;;;;;;;;;5014912;28;20611;-70
2023/09/13 02:37:57;;;;;;;92.53;58.63;;;;;;;;;;4997144;28;20700;-71
2023/09/13 02:40:23;;;;;;;98.87;60.50;;;;;;;;;;4996897;28;20180;-71
2023/09/13 02:42:49;;;;;;;91.60;58.37;;;;;;;;;;5014759;28;20179;-71
2023/09/13 02:45:15;;;;;;;92.40;60.17;;;;;;;;;;5014839;28;20180;-70
2023/09/13 02:47:42;;;;;;;102.87;60.90;;;;;;;;;;4996943;28;20195;-70
2023/09/13 02:50:08;;;;;;;95.63;58.97;;;;;;;;;;5015433;28;20175;-70
2023/09/13 02:52:34;;;;;;;96.57;58.83;;;;;;;;;;4997629;28;20188;-70
2023/09/13 02:55:01;;;;;;;91.93;58.97;;;;;;;;;;5015260;28;20187;-70
2023/09/13 02:57:27;;;;;;;88.40;57.40;;;;;;;;;;4997790;28;20199;-70
2023/09/13 02:59:53;;;;;;;97.90;59.40;;;;;;;;;;5014404;28;20656;-70
2023/09/13 03:02:20;;;;;;;96.00;58.50;;;;;;;;;;5014484;28;20203;-70
2023/09/13 03:04:49;;;;;;;92.80;58.10;;;;;;;;;;5014130;28;20176;-72
2023/09/13 03:07:15;;;;;;;92.40;55.97;;;;;;;;;;4996518;28;20251;-70
2023/09/13 03:09:41;;;;;;;92.90;59.03;;;;;;;;;;4996390;28;20188;-70
2023/09/13 03:12:07;;;;;;;97.23;58.73;;;;;;;;;;5014461;28;20176;-71
2023/09/13 03:14:34;;;;;;;93.20;57.47;;;;;;;;;;5014022;28;20176;-70
2023/09/13 03:17:00;;;;;;;89.10;57.83;;;;;;;;;;5013966;28;20196;-70
2023/09/13 03:19:26;;;;;;;84.77;55.57;;;;;;;;;;4996055;28;20565;-70
2023/09/13 03:21:52;;;;;;;90.97;56.30;;;;;;;;;;4996001;28;20588;-70
2023/09/13 03:24:17;;;;;;;80.07;53.57;;;;;;;;;;5013476;28;20270;-70
2023/09/13 03:26:43;;;;;;;84.37;54.97;;;;;;;;;;5013561;28;20179;-70
2023/09/13 03:29:09;;;;;;;87.77;55.23;;;;;;;;;;5013842;28;20167;-70
2023/09/13 03:31:38;;;;;;;83.03;54.03;;;;;;;;;;5013826;28;20175;-70
2023/09/13 03:34:04;;;;;;;83.30;52.47;;;;;;;;;;4996018;28;20329;-70
2023/09/13 03:36:30;;;;;;;82.33;53.27;;;;;;;;;;4995813;28;20668;-70
2023/09/13 03:38:56;;;;;;;81.00;52.37;;;;;;;;;;4996058;28;20191;-70
2023/09/13 03:41:23;;;;;;;80.90;51.77;;;;;;;;;;4995995;28;20215;-70
2023/09/13 03:43:49;;;;;;;73.13;48.73;;;;;;;;;;5014215;28;20210;-70
2023/09/13 03:46:15;;;;;;;74.57;49.73;;;;;;;;;;5013736;28;20176;-70
2023/09/13 03:48:41;;;;;;;81.70;51.07;;;;;;;;;;4995620;28;20207;-70
2023/09/13 03:51:08;;;;;;;82.50;50.27;;;;;;;;;;5013449;28;20559;-70
2023/09/13 03:53:34;;;;;;;82.03;50.30;;;;;;;;;;5013709;28;20180;-70
2023/09/13 03:56:00;;;;;;;80.70;52.23;;;;;;;;;;5013613;28;20234;-70
2023/09/13 03:58:26;;;;;;;78.90;51.33;;;;;;;;;;4995738;28;20600;-70
2023/09/13 04:00:53;;;;;;;77.63;50.47;;;;;;;;;;5013470;28;20568;-69
2023/09/13 04:03:19;;;;;;;82.77;52.77;;;;;;;;;;5013517;28;20222;-70
2023/09/13 04:05:45;;;;;;;82.37;54.37;;;;;;;;;;5014448;28;20176;-70
2023/09/13 04:08:11;;;;;;;84.97;56.63;;;;;;;;;;5013782;28;20219;-70
2023/09/13 04:10:37;;;;;;;94.47;57.30;;;;;;;;;;4995734;28;20274;-70
2023/09/13 04:13:03;;;;;;;88.53;57.17;;;;;;;;;;5013288;28;20242;-70
2023/09/13 04:15:29;;;;;;;91.83;58.97;;;;;;;;;;5013518;28;20741;-70
2023/09/13 04:17:55;;;;;;;90.47;57.90;;;;;;;;;;5013257;28;20223;-70
2023/09/13 04:20:21;;;;;;;98.30;57.67;;;;;;;;;;5013110;28;20294;-70
2023/09/13 04:22:47;;;;;;;99.43;60.60;;;;;;;;;;5013533;28;20203;-70
2023/09/13 04:25:13;;;;;;;109.43;67.77;;;;;;;;;;4996121;28;20202;-70
2023/09/13 04:27:43;;;;;;;95.33;61.87;;;;;;;;;;5012859;28;20697;-70
2023/09/13 04:30:09;;;;;;;106.40;65.03;;;;;;;;;;5012903;28;20176;-70
2023/09/13 04:32:35;;;;;;;143.40;82.77;;;;;;;;;;4995795;28;20183;-70
2023/09/13 04:35:02;;;;;;;126.80;78.90;;;;;;;;;;4995421;28;20556;-70
2023/09/13 04:37:29;;;;;;;117.47;74.03;;;;;;;;;;5013720;28;20204;-70
2023/09/13 04:39:54;;;;;;;106.40;65.37;;;;;;;;;;4999018;28;20673;-70
2023/09/13 04:42:20;;;;;;;124.77;74.00;;;;;;;;;;4998603;28;20234;-70
2023/09/13 04:44:46;;;;;;;125.43;75.83;;;;;;;;;;5016492;28;20176;-70
2023/09/13 04:47:12;;;;;;;98.90;64.33;;;;;;;;;;4998708;28;20290;-70
2023/09/13 04:49:38;;;;;;;101.30;70.90;;;;;;;;;;5016384;28;20182;-69
2023/09/13 04:52:06;;;;;;;91.60;59.13;;;;;;;;;;4998689;28;20186;-70
2023/09/13 04:54:32;;;;;;;75.77;55.93;;;;;;;;;;5016411;28;20186;-71
2023/09/13 04:56:58;;;;;;;78.30;54.47;;;;;;;;;;5016104;28;20203;-70
2023/09/13 04:59:25;;;;;;;85.13;55.60;;;;;;;;;;4998611;28;20555;-70
2023/09/13 05:01:51;;;;;;;84.90;57.83;;;;;;;;;;4998410;28;20222;-70
2023/09/13 05:04:18;;;;;;;86.40;59.57;;;;;;;;;;5016194;28;20279;-69
2023/09/13 05:06:44;;;;;;;85.57;59.33;;;;;;;;;;4998393;28;20176;-70
2023/09/13 05:09:09;;;;;;;97.27;62.93;;;;;;;;;;5016518;28;20240;-70
2023/09/13 05:11:35;;;;;;;83.20;55.17;;;;;;;;;;5017068;28;20261;-70
2023/09/13 05:14:08;;;;;;;75.07;53.47;;;;;;;;;;5016442;28;20187;-70
2023/09/13 05:16:34;;;;;;;75.43;51.20;;;;;;;;;;5016319;28;20637;-69
2023/09/13 05:19:00;;;;;;;76.23;52.13;;;;;;;;;;5016515;28;20180;-70
2023/09/13 05:21:26;;;;;;;78.73;52.17;;;;;;;;;;5015675;28;20290;-70
2023/09/13 05:23:52;;;;;;;80.33;52.67;;;;;;;;;;5016413;28;20180;-70
2023/09/13 05:26:18;;;;;;;80.50;52.33;;;;;;;;;;4998150;28;20188;-70
2023/09/13 05:28:45;;;;;;;76.07;52.17;;;;;;;;;;5015738;28;20216;-70
2023/09/13 05:31:11;;;;;;;82.40;53.03;;;;;;;;;;5016235;28;20172;-69
2023/09/13 05:33:37;;;;;;;80.17;52.90;;;;;;;;;;4998783;28;20616;-70
2023/09/13 05:36:10;;;;;;;83.00;53.10;;;;;;;;;;5048001;22;20223;-71
2023/09/13 05:38:36;;;;;;;84.97;52.40;;;;;;;;;;5017256;28;20372;-71
2023/09/13 05:41:07;;;;;;;77.37;51.30;;;;;;;;;;5035241;28;20664;-70
2023/09/13 05:43:33;;;;;;;75.87;49.83;;;;;;;;;;5017204;28;20183;-71
2023/09/13 05:45:59;;;;;;;80.40;52.23;;;;;;;;;;5035071;28;20219;-71
2023/09/13 05:48:25;;;;;;;75.70;50.60;;;;;;;;;;5017481;28;20572;-71
2023/09/13 05:50:51;;;;;;;81.77;51.73;;;;;;;;;;5034240;28;20262;-71
2023/09/13 05:53:19;;;;;;;77.80;50.90;;;;;;;;;;5017111;28;20186;-70
2023/09/13 05:55:45;;;;;;;80.47;52.10;;;;;;;;;;5017025;28;20237;-71
2023/09/13 05:58:11;;;;;;;83.33;52.37;;;;;;;;;;5017117;28;20179;-71
2023/09/13 06:00:37;;;;;;;83.37;54.20;;;;;;;;;;5035732;28;20733;-70
2023/09/13 06:03:04;;;;;;;75.90;50.83;;;;;;;;;;5034844;28;20197;-71
2023/09/13 06:05:30;;;;;;;81.67;51.60;;;;;;;;;;5034883;28;20278;-70
2023/09/13 06:07:56;;;;;;;80.07;52.33;;;;;;;;;;5034800;28;20626;-70
2023/09/13 06:10:22;;;;;;;83.27;52.50;;;;;;;;;;5016737;28;20268;-71
2023/09/13 06:12:48;;;;;;;79.33;51.57;;;;;;;;;;5035349;28;20179;-70
2023/09/13 06:15:14;;;;;;;79.00;52.30;;;;;;;;;;5035319;28;20180;-70
2023/09/13 06:17:40;;;;;;;80.63;51.57;;;;;;;;;;5034407;28;20661;-70
2023/09/13 06:20:06;;;;;;;78.23;52.13;;;;;;;;;;5034513;28;20668;-70
2023/09/13 06:22:32;;;;;;;80.90;49.37;;;;;;;;;;5016625;28;20245;-69
2023/09/13 06:25:02;;;;;;;76.33;49.77;;;;;;;;;;5034299;28;20590;-71
2023/09/13 06:27:28;;;;;;;72.23;49.47;;;;;;;;;;5016512;28;20292;-70
2023/09/13 06:29:54;;;;;;;70.27;48.83;;;;;;;;;;5034709;28;20200;-70
2023/09/13 06:32:20;;;;;;;74.70;48.53;;;;;;;;;;5016469;28;20194;-71
2023/09/13 06:34:47;;;;;;;72.37;47.23;;;;;;;;;;5034899;28;20190;-70
2023/09/13 06:37:13;;;;;;;74.33;48.57;;;;;;;;;;5016512;28;20245;-71
2023/09/13 06:39:39;;;;;;;75.13;47.70;;;;;;;;;;5016861;28;20252;-70
2023/09/13 06:42:06;;;;;;;74.90;47.63;;;;;;;;;;5016172;28;20646;-71
2023/09/13 06:44:32;;;;;;;71.60;47.50;;;;;;;;;;5034170;28;20491;-70
2023/09/13 06:46:58;;;;;;;77.93;50.13;;;;;;;;;;5033860;28;20219;-70
2023/09/13 06:49:24;;;;;;;74.33;48.73;;;;;;;;;;5033750;28;20687;-70
2023/09/13 06:51:50;;;;;;;83.33;51.53;;;;;;;;;;5034356;28;20175;-71
2023/09/13 06:54:18;;;;;;;72.83;49.83;;;;;;;;;;5033781;28;20636;-71
2023/09/13 06:56:44;;;;;;;73.27;48.20;;;;;;;;;;5015850;28;20293;-71
2023/09/13 06:59:10;;;;;;;73.10;47.27;;;;;;;;;;5015742;28;20274;-71
2023/09/13 07:01:36;;;;;;;74.60;47.67;;;;;;;;;;5032931;28;20281;-70
2023/09/13 07:04:03;;;;;;;75.60;50.13;;;;;;;;;;5033416;28;20182;-70
2023/09/13 07:06:29;;;;;;;79.03;50.10;;;;;;;;;;5033434;28;20203;-70
2023/09/13 07:08:55;;;;;;;68.80;47.37;;;;;;;;;;5033663;28;20176;-70
2023/09/13 07:11:22;;;;;;;61.50;42.50;;;;;;;;;;5033405;28;20187;-70
2023/09/13 07:13:48;;;;;;;72.50;45.90;;;;;;;;;;5015592;28;20273;-70
2023/09/13 07:16:14;;;;;;;57.10;42.73;;;;;;;;;;5015406;28;20690;-70
2023/09/13 07:18:40;;;;;;;60.93;43.63;;;;;;;;;;5033203;28;20269;-70
2023/09/13 07:21:06;;;;;;;58.13;40.70;;;;;;;;;;5033126;28;20202;-70
2023/09/13 07:23:32;;;;;;;58.07;39.33;;;;;;;;;;5033265;28;20175;-70
2023/09/13 07:25:59;;;;;;;57.40;41.07;;;;;;;;;;5015620;28;20201;-71
2023/09/13 07:28:25;;;;;;;56.60;41.80;;;;;;;;;;5015643;28;20232;-71
2023/09/13 07:30:51;;;;;;;60.30;41.20;;;;;;;;;;5033663;28;20175;-71
2023/09/13 07:33:17;;;;;;;53.73;39.57;;;;;;;;;;5016802;28;20189;-70
2023/09/13 07:35:43;;;;;;;62.77;41.23;;;;;;;;;;5025397;28;20242;-70
2023/09/13 07:38:10;;;;;;;58.27;40.53;;;;;;;;;;5043871;28;20632;-70
2023/09/13 07:40:37;;;;;;;56.03;40.30;;;;;;;;;;5037428;28;20175;-70
2023/09/13 07:43:03;;;;;;;55.73;39.67;;;;;;;;;;5016069;28;20270;-71
2023/09/13 07:45:31;;;;;;;57.27;37.80;;;;;;;;;;5015580;28;20555;-70
2023/09/13 07:47:57;;;;;;;48.77;35.97;;;;;;;;;;5015380;28;20668;-71
2023/09/13 07:50:34;;;;;;;44.93;34.90;;;;;;;;;;5033727;28;20250;-70
2023/09/13 07:53:00;;;;;;;53.47;38.73;;;;;;;;;;5015754;28;20597;-70
2023/09/13 07:55:26;;;;;;;50.83;36.03;;;;;;;;;;5033166;28;20198;-71
2023/09/13 07:57:52;;;;;;;47.27;37.37;;;;;;;;;;5032986;28;20544;-71
2023/09/13 08:00:18;;;;;;;48.67;35.10;;;;;;;;;;5015386;28;20179;-69
2023/09/13 08:02:46;;;;;;;54.80;37.60;;;;;;;;;;5015242;28;20684;-69
2023/09/13 08:05:12;;;;;;;47.00;35.23;;;;;;;;;;5033034;28;20172;-70
2023/09/13 08:07:38;;;;;;;50.27;35.13;;;;;;;;;;5033825;28;20175;-69
2023/09/13 08:10:04;;;;;;;48.37;34.27;;;;;;;;;;5033195;28;20590;-70
2023/09/13 08:12:31;;;;;;;52.33;35.17;;;;;;;;;;5033472;28;20191;-69
2023/09/13 08:14:57;;;;;;;46.10;33.83;;;;;;;;;;5036763;28;20185;-71
2023/09/13 08:17:23;;;;;;;50.67;35.33;;;;;;;;;;5018759;28;20204;-71
2023/09/13 08:19:49;;;;;;;43.97;31.93;;;;;;;;;;5036567;28;20190;-71
2023/09/13 08:22:15;;;;;;;44.50;32.60;;;;;;;;;;5019137;28;20289;-70
2023/09/13 08:24:41;;;;;;;51.90;34.43;;;;;;;;;;5037916;28;20206;-71
2023/09/13 08:27:07;;;;;;;45.90;32.30;;;;;;;;;;5018601;28;20210;-71
2023/09/13 08:29:34;;;;;;;45.07;31.70;;;;;;;;;;5036558;28;20528;-71
2023/09/13 08:32:00;;;;;;;45.33;32.73;;;;;;;;;;5036690;28;20626;-69
2023/09/13 08:34:26;;;;;;;47.53;32.63;;;;;;;;;;5036081;28;20185;-69
2023/09/13 08:36:56;;;;;;;46.00;32.50;;;;;;;;;;5018304;28;20215;-70
2023/09/13 08:39:22;;;;;;;41.33;30.37;;;;;;;;;;5018614;28;20214;-71
2023/09/13 08:41:51;;;;;;;42.80;31.17;;;;;;;;;;5036160;28;20206;-69
2023/09/13 08:44:20;;;;;;;47.03;31.93;;;;;;;;;;5018595;28;20193;-69
2023/09/13 08:46:47;;;;;;;46.20;31.20;;;;;;;;;;5036294;28;20195;-70
2023/09/13 08:49:14;;;;;;;39.20;27.63;;;;;;;;;;5035841;28;20209;-70
2023/09/13 08:51:41;;;;;;;39.53;30.27;;;;;;;;;;5035771;28;20310;-71
2023/09/13 08:54:08;;;;;;;38.57;29.00;;;;;;;;;;5018030;28;20190;-71
2023/09/13 08:56:34;;;;;;;38.23;28.37;;;;;;;;;;5035719;28;20564;-71
2023/09/13 08:59:01;;;;;;;34.50;27.27;;;;;;;;;;5017959;28;20183;-70
2023/09/13 09:01:28;;;;;;;35.77;27.87;;;;;;;;;;5017696;28;20206;-71
2023/09/13 09:03:54;;;;;;;30.97;24.47;;;;;;;;;;5035799;28;20176;-70
2023/09/13 09:06:20;;;;;;;31.40;24.93;;;;;;;;;;5035973;28;20245;-70
2023/09/13 09:08:48;;;;;;;35.53;25.77;;;;;;;;;;5035687;28;20202;-71
2023/09/13 09:11:15;;;;;;;29.80;24.60;;;;;;;;;;5017762;28;20191;-71
2023/09/13 09:13:43;;;;;;;27.43;22.90;;;;;;;;;;5035759;28;20182;-70
2023/09/13 09:16:10;;;;;;;30.73;23.77;;;;;;;;;;5017668;28;20210;-70
2023/09/13 09:18:37;;;;;;;30.23;23.87;;;;;;;;;;5035446;28;20210;-70
2023/09/13 09:21:04;;;;;;;30.87;23.87;;;;;;;;;;5017325;28;20210;-70
2023/09/13 09:23:30;;;;;;;31.97;24.73;;;;;;;;;;5017697;28;20183;-71
2023/09/13 09:25:56;;;;;;;30.63;23.00;;;;;;;;;;5017465;28;20241;-71
2023/09/13 09:28:26;;;;;;;29.20;22.13;;;;;;;;;;5017540;28;20186;-71
2023/09/13 09:30:52;;;;;;;27.70;22.90;;;;;;;;;;5035288;28;20666;-71
2023/09/13 09:33:27;;;;;;;15.13;13.03;;;;;;;;;;5017568;28;20183;-72
2023/09/13 09:35:54;;;;;;;9.83;7.07;;;;;;;;;;5034955;28;20213;-70
2023/09/13 09:38:21;;;;;;;5.43;4.00;;;;;;;;;;5017429;28;20183;-70
2023/09/13 09:40:48;;;;;;;5.50;4.00;;;;;;;;;;5035300;28;20202;-70
2023/09/13 09:43:13;;;;;;;3.87;2.73;;;;;;;;;;5017150;28;20209;-71
2023/09/13 09:45:39;;;;;;;6.53;2.90;;;;;;;;;;5017174;28;20211;-71
2023/09/13 09:48:07;;;;;;;3.67;2.70;;;;;;;;;;5034875;28;20253;-69
2023/09/13 09:50:33;;;;;;;3.20;2.77;;;;;;;;;;5017204;28;20178;-70
2023/09/13 09:52:59;;;;;;;3.50;2.70;;;;;;;;;;5035637;28;20178;-69
2023/09/13 09:55:28;;;;;;;3.73;2.30;;;;;;;;;;5017557;28;20575;-69
2023/09/13 09:57:55;;;;;;;4.47;2.50;;;;;;;;;;5017517;28;20207;-70
2023/09/13 10:00:22;;;;;;;;;;;;;;;;;;5035547;28;20112;-69
2023/09/13 10:02:48;;;;;;;;;;;;;;;;;;5017449;28;19909;-70
2023/09/13 10:05:16;;;;;;;;;;;;;;;;;;5035047;28;20286;-70
2023/09/13 10:07:42;;;;;;;;;;;;;;;;;;5017257;28;19917;-70
2023/09/13 10:10:11;;;;;;;;;;;;;;;;;;5035449;28;19916;-71
2023/09/13 10:12:36;;;;;;;;;;;;;;;;;;5035417;28;20239;-70
2023/09/13 10:15:02;;;;;;;;;;;;;;;;;;5035217;28;20390;-69
2023/09/13 10:17:28;;;;;;;;;;;;;;;;;;5035252;28;19917;-70
2023/09/13 10:19:54;;;;;;;;;;;;;;;;;;5036265;28;19909;-70
2023/09/13 10:22:25;;;;;;;;;;;;;;;;;;5038704;28;19963;-69
2023/09/13 10:24:52;;;;;;;;;;;;;;;;;;5020452;28;20140;-69
2023/09/13 10:27:18;;;;;;;;;;;;;;;;;;5034999;28;19905;-69
2023/09/13 10:29:44;;;;;;;;;;;;;;;;;;5034609;28;19912;-69
2023/09/13 10:32:10;;;;;;;;;;;;;;;;;;5017659;28;19913;-70
2023/09/13 10:34:36;;;;;;;;;;;;;;;;;;5018189;28;20363;-70
2023/09/13 10:37:02;;;;;;;;;;;;;;;;;;5016639;28;19994;-70
2023/09/13 10:39:28;;;;;;;;;;;;;;;;;;5018276;28;19905;-70
2023/09/13 10:41:54;;;;;;;;;;;;;;;;;;5018801;28;20274;-70
2023/09/13 10:44:20;;;;;;;;;;;;;;;;;;5036317;28;19905;-69
2023/09/13 10:46:45;;;;;;;;;;;;;;;;;;5018361;28;19927;-69
2023/09/13 10:49:11;;;;;;;;;;;;;;;;;;5018876;28;20264;-69
2023/09/13 10:51:37;;;;;;;;;;;;;;;;;;5035949;28;19915;-69
2023/09/13 10:54:03;;;;;;;;;;;;;;;;;;5036033;28;20248;-70
2023/09/13 10:56:29;;;;;;;;;;;;;;;;;;5037131;28;19909;-70
2023/09/13 10:58:55;;;;;;;;;;;;;;;;;;5021661;28;19964;-70
2023/09/13 11:01:21;;;;;;;;;;;;;;;;;;5039229;28;20440;-69
2023/09/13 11:03:47;;;;;;;;;;;;;;;;;;5039934;28;19909;-69
2023/09/13 11:06:13;;;;;;;;;;;;;;;;;;5038961;28;19996;-69
2023/09/13 11:08:39;;;;;;;;;;;;;;;;;;5036694;28;19905;-70
2023/09/13 11:11:04;;;;;;;;;;;;;;;;;;5017761;28;19944;-71
2023/09/13 11:13:30;;;;;;;;;;;;;;;;;;5035475;28;19913;-70
2023/09/13 11:16:01;;;;;;;;;;;;;;;;;;5035337;28;20353;-70
2023/09/13 11:18:27;;;;;;;;;;;;;;;;;;5035174;28;20294;-70
2023/09/13 11:20:53;;;;;;;;;;;;;;;;;;5034336;28;19959;-69
2023/09/13 11:23:19;;;;;;;;;;;;;;;;;;5033723;28;19967;-69
2023/09/13 11:25:45;;;;;;;;;;;;;;;;;;5015667;28;20288;-70
2023/09/13 11:28:11;;;;;;;;;;;;;;;;;;5015630;28;19948;-70
2023/09/13 11:30:37;;;;;;;;;;;;;;;;;;5015528;28;19909;-70
2023/09/13 11:33:03;;;;;;;;;;;;;;;;;;5033518;28;20428;-68
2023/09/13 11:35:29;;;;;;;;;;;;;;;;;;5033008;28;19921;-68
2023/09/13 11:37:55;;;;;;;;;;;;;;;;;;5034027;28;19999;-70
2023/09/13 11:40:22;;;;;;;;;;;;;;;;;;5015843;28;19909;-68
2023/09/13 11:42:47;;;;;;;;;;;;;;;;;;5033556;28;20051;-71
2023/09/13 11:45:13;;;;;;;;;;;;;;;;;;5015805;28;20385;-69
2023/09/13 11:47:39;;;;;;;;;;;;;;;;;;5036096;28;19999;-70
2023/09/13 11:50:05;;;;;;;;;;;;;;;;;;5037487;28;19912;-70
2023/09/13 11:52:31;;;;;;;;;;;;;;;;;;5037557;28;19905;-69
2023/09/13 11:54:57;;;;;;;;;;;;;;;;;;5037199;28;19909;-70
2023/09/13 11:57:23;;;;;;;;;;;;;;;;;;5037311;28;19905;-70
2023/09/13 11:59:49;;;;;;;;;;;;;;;;;;5037209;28;19928;-70
2023/09/13 12:02:15;;;;;;;;;;;;;;;;;;5019457;28;19915;-70
2023/09/13 12:04:40;;;;;;;;;;;;;;;;;;5019182;28;19905;-70
2023/09/13 12:07:06;;;;;;;;;;;;;;;;;;5036933;28;19912;-69
2023/09/13 12:09:32;;;;;;;;;;;;;;;;;;5019314;28;20402;-70
2023/09/13 12:11:58;;;;;;;;;;;;;;;;;;5037565;28;19912;-70
2023/09/13 12:14:25;;;;;;;;;;;;;;;;;;5019713;28;19905;-69
2023/09/13 12:16:51;;;;;;;;;;;;;;;;;;5037049;28;19912;-69
2023/09/13 12:19:16;;;;;;;;;;;;;;;;;;5019270;28;19905;-70
2023/09/13 12:21:43;;;;;;;;;;;;;;;;;;5036720;28;20421;-68
2023/09/13 12:24:12;;;;;;;;;;;;;;;;;;5036958;28;19992;-70
2023/09/13 12:26:38;;;;;;;;;;;;;;;;;;5018745;28;19955;-70
2023/09/13 12:29:04;;;;;;;;;;;;;;;;;;5036655;28;19916;-70
2023/09/13 12:31:30;;;;;;;;;;;;;;;;;;5018783;28;19944;-70
2023/09/13 12:33:57;;;;;;;;;;;;;;;;;;5036545;28;19913;-70
2023/09/13 12:36:24;;;;;;;;;;;;;;;;;;5018670;28;19935;-67
2023/09/13 12:38:50;;;;;;;;;;;;;;;;;;5019107;28;20356;-68
2023/09/13 12:41:16;;;;;;;;;;;;;;;;;;5036980;28;19916;-69
2023/09/13 12:43:42;;;;;;;;;;;;;;;;;;5037335;28;19995;-70
2023/09/13 12:46:09;;;;;;;;;;;;;;;;;;5018844;28;19905;-70
2023/09/13 12:48:35;;;;;;;;;;;;;;;;;;5018638;28;19905;-69
2023/09/13 12:51:01;;;;;;;;;;;;;;;;;;5018444;28;19905;-67
2023/09/13 12:53:27;;;;;;;;;;;;;;;;;;5018550;28;19959;-68
2023/09/13 12:55:53;;;;;;;;;;;;;;;;;;5018333;28;20277;-68
2023/09/13 12:58:19;;;;;;;;;;;;;;;;;;5035581;28;19905;-68
2023/09/13 13:00:45;;;;;;;;;;;;;;;;;;5018460;28;20007;-69
2023/09/13 13:03:11;;;;;;;;;;;;;;;;;;5018626;28;20004;-70
2023/09/13 13:05:36;;;;;;;;;;;;;;;;;;5037244;28;20011;-68
2023/09/13 13:08:02;;;;;;;;;;;;;;;;;;5039508;28;20355;-67
2023/09/13 13:10:28;;;;;;;;;;;;;;;;;;5020820;28;19909;-69
2023/09/13 13:12:54;;;;;;;;;;;;;;;;;;5018245;28;19905;-69
2023/09/13 13:15:21;;;;;;;;;;;;;;;;;;5018458;28;19905;-69
2023/09/13 13:17:49;;;;;;;;;;;;;;;;;;5018139;28;19972;-69
2023/09/13 13:20:14;;;;;;;;;;;;;;;;;;5018238;28;19905;-69
2023/09/13 13:22:40;;;;;;;;;;;;;;;;;;5035827;28;19916;-69
2023/09/13 13:25:06;;;;;;;;;;;;;;;;;;5018013;28;19940;-71
2023/09/13 13:27:32;;;;;;;;;;;;;;;;;;5017943;28;20282;-69
2023/09/13 13:29:58;;;;;;;;;;;;;;;;;;5035801;28;19912;-69
2023/09/13 13:32:24;;;;;;;;;;;;;;;;;;5036017;28;19905;-67
2023/09/13 13:34:50;;;;;;;;;;;;;;;;;;5018709;28;19905;-70
2023/09/13 13:37:16;;;;;;;;;;;;;;;;;;5036045;28;20345;-71
2023/09/13 13:39:42;;;;;;;;;;;;;;;;;;5036128;28;19905;-71
2023/09/13 13:42:08;;;;;;;;;;;;;;;;;;5018119;28;19979;-69
2023/09/13 13:44:36;;;;;;;;;;;;;;;;;;5035515;28;20286;-69
2023/09/13 13:47:03;;;;;;;;;;;;;;;;;;5017683;28;20287;-68
2023/09/13 13:49:29;;;;;;;;;;;;;;;;;;5035584;28;19909;-69
2023/09/13 13:51:55;;;;;;;;;;;;;;;;;;5035621;28;20275;-69
2023/09/13 13:54:22;;;;;;;;;;;;;;;;;;5035443;28;20000;-69
2023/09/13 13:56:48;;;;;;;;;;;;;;;;;;5034980;28;20003;-67
2023/09/13 13:59:14;;;;;;;;;;;;;;;;;;5034955;28;20371;-68
2023/09/13 14:01:40;;;;;;;;;;;;;;;;;;5034813;28;19916;-67
2023/09/13 14:04:06;;;;;;;;;;;;;;;;;;5035021;28;19905;-67
2023/09/13 14:06:32;;;;;;;;;;;;;;;;;;5034777;28;20291;-68
2023/09/13 14:09:01;;;;;;;;;;;;;;;;;;5017043;28;19909;-69
2023/09/13 14:11:27;;;;;;;;;;;;;;;;;;5016074;28;19944;-69
2023/09/13 14:13:53;;;;;;;;;;;;;;;;;;5035277;28;19912;-70
2023/09/13 14:16:18;;;;;;;;;;;;;;;;;;5017011;28;19911;-69
2023/09/13 14:18:44;;;;;;;;;;;;;;;;;;5017186;28;19905;-69
2023/09/13 14:21:10;;;;;;;;;;;;;;;;;;5016812;28;19916;-70
2023/09/13 14:23:36;;;;;;;;;;;;;;;;;;5016847;28;19905;-69
2023/09/13 14:26:02;;;;;;;;;;;;;;;;;;5034551;28;19911;-69
2023/09/13 14:28:31;;;;;;;;;;;;;;;;;;5016770;28;19928;-67
2023/09/13 14:30:58;;;;;;;;;;;;;;;;;;5035033;28;19911;-68
2023/09/13 14:33:25;;;;;;;;;;;;;;;;;;5016974;28;19959;-68
2023/09/13 14:35:52;;;;;;;;;;;;;;;;;;5016664;28;20367;-69
2023/09/13 14:38:20;;;;;;;;;;;;;;;;;;5016616;28;19909;-69
2023/09/13 14:40:46;;;;;;;;;;;;;;;;;;5034384;28;19959;-69
2023/09/13 14:43:12;;;;;;;;;;;;;;;;;;5034677;28;19908;-70
2023/09/13 14:45:38;;;;;;;;;;;;;;;;;;5016520;28;19909;-68
2023/09/13 14:48:04;;;;;;;;;;;;;;;;;;5034399;28;19971;-68
2023/09/13 14:50:29;;;;;;;;;;;;;;;;;;5034627;28;19909;-70
2023/09/13 14:52:55;;;;;;;;;;;;;;;;;;5034457;28;19905;-69
2023/09/13 14:55:21;;;;;;;;;;;;;;;;;;5034097;28;20279;-68
2023/09/13 14:57:47;;;;;;;;;;;;;;;;;;5034211;28;20000;-68